Time;durP1;ratioP1;P1;durP2;ratioP2;P2;SDS_P1;SDS_P2;PMS_P1;PMS_P2;Temp;Humidity;BMP_temperature;BMP_pressure;BME280_temperature;BME280_humidity;BME280_pressure;Samples;Min_cycle;Max_cycle;Signal;HPM_P1;HPM_P2
2022/05/11 00:00:21;;;;;;;11.82;9.35;;;;;;;17.35;100.00;96495.53;5066373;28;20079;-48
2022/05/11 00:02:49;;;;;;;11.30;9.77;;;;;;;17.33;100.00;96497.56;5067385;28;20072;-48
2022/05/11 00:05:18;;;;;;;11.43;10.18;;;;;;;17.25;100.00;96498.50;5067447;28;20064;-52
2022/05/11 00:07:48;;;;;;;10.88;9.77;;;;;;;17.19;100.00;96496.56;5063424;28;20092;-47
2022/05/11 00:10:16;;;;;;;11.95;9.88;;;;;;;17.18;100.00;96492.25;5062049;28;20087;-52
2022/05/11 00:12:46;;;;;;;11.82;9.90;;;;;;;17.02;100.00;96503.09;5065771;28;20095;-48
2022/05/11 00:15:18;;;;;;;10.35;9.35;;;;;;;17.15;100.00;96500.63;5065578;28;20083;-49
2022/05/11 00:17:46;;;;;;;11.85;9.82;;;;;;;17.00;100.00;96499.81;5064387;28;20063;-50
2022/05/11 00:20:16;;;;;;;12.32;9.80;;;;;;;16.98;100.00;96493.81;5064516;28;20090;-51
2022/05/11 00:22:44;;;;;;;11.85;10.02;;;;;;;17.00;100.00;96502.47;5064566;28;20060;-52
2022/05/11 00:25:14;;;;;;;12.80;10.15;;;;;;;16.87;100.00;96495.09;5064552;28;20170;-51
2022/05/11 00:27:43;;;;;;;13.27;10.55;;;;;;;16.83;100.00;96488.50;5067714;28;20484;-51
2022/05/11 00:30:13;;;;;;;11.05;9.73;;;;;;;16.85;100.00;96489.94;5065532;28;20566;-51
2022/05/11 00:32:41;;;;;;;11.85;10.13;;;;;;;16.73;100.00;96490.56;5066106;28;20613;-51
2022/05/11 00:35:10;;;;;;;12.65;10.32;;;;;;;16.85;100.00;96489.13;5062078;28;20064;-51
2022/05/11 00:37:39;;;;;;;14.77;9.82;;;;;;;16.58;100.00;96490.53;5064561;28;20064;-51
2022/05/11 00:40:08;;;;;;;11.75;9.45;;;;;;;16.70;100.00;96486.44;5066124;28;20484;-52
2022/05/11 00:42:36;;;;;;;11.93;10.05;;;;;;;16.66;100.00;96486.97;5066271;28;20080;-51
2022/05/11 00:45:06;;;;;;;13.95;9.85;;;;;;;16.66;100.00;96485.16;5063319;28;21981;-53
2022/05/11 00:47:38;;;;;;;10.10;9.05;;;;;;;16.61;100.00;96487.50;5066430;28;20064;-50
2022/05/11 00:50:08;;;;;;;11.93;10.10;;;;;;;16.61;100.00;96484.84;5065254;28;20060;-49
2022/05/11 00:52:41;;;;;;;10.90;9.80;;;;;;;16.32;100.00;96475.81;5066190;28;20453;-51
2022/05/11 00:55:13;;;;;;;11.05;9.85;;;;;;;16.37;100.00;96472.59;5065534;28;20099;-51
2022/05/11 00:57:47;;;;;;;10.98;9.85;;;;;;;16.24;100.00;96480.38;5065534;28;20087;-48
2022/05/11 01:00:16;;;;;;;12.50;10.00;;;;;;;16.09;100.00;96475.84;5063586;28;20189;-53
2022/05/11 01:02:48;;;;;;;11.50;9.57;;;;;;;16.10;100.00;96472.19;5064753;28;20144;-52
2022/05/11 01:05:17;;;;;;;10.32;9.15;;;;;;;16.16;100.00;96475.94;5060718;28;20438;-55
2022/05/11 01:07:45;;;;;;;10.65;9.18;;;;;;;16.17;100.00;96468.78;5067502;28;20072;-51
2022/05/11 01:10:14;;;;;;;10.00;9.00;;;;;;;16.12;100.00;96467.50;5061777;28;20130;-52
2022/05/11 01:12:45;;;;;;;11.10;9.27;;;;;;;16.22;100.00;96464.59;5065364;28;20560;-52
2022/05/11 01:15:15;;;;;;;10.23;9.20;;;;;;;15.98;100.00;96470.13;5064323;28;20064;-50
2022/05/11 01:17:43;;;;;;;9.65;8.65;;;;;;;16.08;100.00;96471.53;5063636;28;20069;-47
2022/05/11 01:20:16;;;;;;;10.10;9.10;;;;;;;16.14;100.00;96467.34;5051277;28;20083;-48
2022/05/11 01:22:48;;;;;;;12.52;9.20;;;;;;;15.90;100.00;96466.50;5064026;28;20083;-48
2022/05/11 01:25:18;;;;;;;10.48;9.00;;;;;;;15.96;100.00;96475.59;5065859;28;20072;-46
2022/05/11 01:27:48;;;;;;;10.05;9.05;;;;;;;16.09;100.00;96467.03;5065049;28;20076;-47
2022/05/11 01:30:20;;;;;;;11.23;9.40;;;;;;;15.72;100.00;96470.44;5065366;28;20068;-52
2022/05/11 01:32:51;;;;;;;9.93;8.80;;;;;;;15.84;100.00;96464.56;5064645;28;20029;-48
2022/05/11 01:35:34;;;;;;;10.00;8.90;;;;;;;15.77;100.00;96468.94;5065575;28;20482;-50
2022/05/11 01:38:15;;;;;;;9.88;8.90;;;;;;;15.83;100.00;96468.22;5069832;28;20067;-46
2022/05/11 01:40:45;;;;;;;9.82;8.63;;;;;;;15.87;100.00;96471.38;5064578;28;20526;-52
2022/05/11 01:43:17;;;;;;;11.73;8.60;;;;;;;15.89;100.00;96467.50;5059398;28;20052;-50
2022/05/11 01:45:45;;;;;;;9.65;8.50;;;;;;;15.56;100.00;96464.22;5064141;28;20537;-47
2022/05/11 01:48:14;;;;;;;9.65;8.57;;;;;;;15.94;100.00;96466.16;5064477;28;20079;-49
2022/05/11 01:50:43;;;;;;;13.48;8.70;;;;;;;15.86;100.00;96464.38;5060729;28;20485;-46
2022/05/11 01:53:12;;;;;;;10.45;9.13;;;;;;;15.79;100.00;96463.41;5064628;28;20456;-48
2022/05/11 01:55:41;;;;;;;11.80;8.60;;;;;;;15.72;100.00;96465.13;5065062;28;20633;-50
2022/05/11 01:58:12;;;;;;;9.40;8.40;;;;;;;15.85;100.00;96463.53;5061208;28;20087;-50
2022/05/11 02:00:40;;;;;;;;;;;;;;;15.70;100.00;96459.19;5064086;28;20072;-50
2022/05/11 02:03:09;;;;;;;9.52;8.23;;;;;;;15.86;100.00;96467.88;5065923;28;19971;-53
2022/05/11 02:08:23;;;;;;;10.07;8.20;;;;;;;15.57;100.00;96454.41;5063655;28;20083;-47
2022/05/11 02:10:51;;;;;;;11.15;8.57;;;;;;;15.74;100.00;96458.66;5058435;28;20068;-48
2022/05/11 02:13:21;;;;;;;10.65;8.70;;;;;;;15.64;100.00;96456.19;5058085;28;20084;-49
2022/05/11 02:15:50;;;;;;;9.45;8.25;;;;;;;15.67;100.00;96455.03;5059630;28;20045;-46
2022/05/11 02:18:19;;;;;;;9.55;8.48;;;;;;;15.75;100.00;96457.63;5063031;28;20613;-48
2022/05/11 02:20:47;;;;;;;11.90;8.80;;;;;;;15.78;100.00;96467.91;5060829;28;20064;-52
2022/05/11 02:23:16;;;;;;;13.18;8.00;;;;;;;15.51;100.00;96463.91;5058875;28;20064;-50
2022/05/11 02:25:46;;;;;;;9.90;8.48;;;;;;;15.61;100.00;96458.38;5061861;28;20067;-49
2022/05/11 02:28:15;;;;;;;10.18;8.00;;;;;;;15.72;100.00;96459.81;5065173;28;20079;-45
2022/05/11 02:30:46;;;;;;;11.07;8.32;;;;;;;15.46;100.00;96457.47;5060257;28;20143;-50
2022/05/11 02:33:15;;;;;;;8.70;7.78;;;;;;;15.59;100.00;96458.56;5065083;28;20483;-48
2022/05/11 02:35:44;;;;;;;9.52;8.05;;;;;;;15.66;100.00;96456.06;5066806;28;20037;-49
2022/05/11 02:38:14;;;;;;;9.27;8.25;;;;;;;15.76;100.00;96453.13;5067993;28;20072;-49
2022/05/11 02:40:43;;;;;;;9.35;7.70;;;;;;;15.68;100.00;96461.19;5068008;28;20064;-49
2022/05/11 02:43:12;;;;;;;8.65;7.75;;;;;;;15.44;100.00;96457.63;5067847;28;20081;-50
2022/05/11 02:45:41;;;;;;;9.20;7.80;;;;;;;15.65;100.00;96455.16;5068869;28;20079;-50
2022/05/11 02:48:13;;;;;;;9.30;7.63;;;;;;;15.62;100.00;96457.34;5066758;28;20065;-49
2022/05/11 02:50:43;;;;;;;8.65;7.75;;;;;;;15.28;100.00;96455.91;5063746;28;20094;-46
2022/05/11 02:53:12;;;;;;;8.20;7.40;;;;;;;15.51;100.00;96455.09;5068039;28;20068;-49
2022/05/11 02:55:42;;;;;;;9.07;7.75;;;;;;;15.35;100.00;96453.38;5067055;28;20068;-48
2022/05/11 02:58:10;;;;;;;;;;;;;;;15.51;100.00;96450.63;5065802;28;20072;-49
2022/05/11 03:00:39;;;;;;;11.32;7.75;;;;;;;15.34;100.00;96451.72;5068288;28;19962;-52
2022/05/11 03:03:07;;;;;;;9.25;7.55;;;;;;;15.25;100.00;96466.06;5067644;28;20071;-48
2022/05/11 03:05:37;;;;;;;8.35;7.40;;;;;;;15.20;100.00;96463.91;5067788;28;20071;-50
2022/05/11 03:08:06;;;;;;;9.00;7.90;;;;;;;15.15;100.00;96461.78;5067203;28;20095;-46
2022/05/11 03:10:35;;;;;;;8.93;7.97;;;;;;;15.28;100.00;96463.88;5065301;28;20072;-48
2022/05/11 03:13:03;;;;;;;8.98;8.07;;;;;;;15.25;100.00;96464.22;5068275;28;20087;-50
2022/05/11 03:15:32;;;;;;;10.05;8.82;;;;;;;15.24;100.00;96465.22;5068133;28;20056;-50
2022/05/11 03:18:00;;;;;;;9.55;8.55;;;;;;;15.13;100.00;96457.63;5068141;28;20068;-46
2022/05/11 03:20:28;;;;;;;10.00;8.40;;;;;;;15.04;100.00;96470.13;5067804;28;20060;-50
2022/05/11 03:22:58;;;;;;;10.52;8.60;;;;;;;14.82;100.00;96469.03;5067769;28;20068;-49
2022/05/11 03:25:27;;;;;;;9.23;8.33;;;;;;;14.77;100.00;96468.72;5068802;28;20068;-48
2022/05/11 03:27:55;;;;;;;12.68;9.07;;;;;;;14.94;100.00;96472.97;5072050;28;20076;-51
2022/05/11 03:30:23;;;;;;;9.90;8.85;;;;;;;14.85;100.00;96470.53;5068573;28;20060;-48
2022/05/11 03:35:37;;;;;;;9.95;8.88;;;;;;;14.81;100.00;96474.53;5071366;28;20067;-50
2022/05/11 03:38:07;;;;;;;10.27;9.27;;;;;;;14.95;100.00;96471.16;5070160;28;22089;-47
2022/05/11 03:40:38;;;;;;;9.65;8.63;;;;;;;15.08;100.00;96474.09;5065760;28;20055;-51
2022/05/11 03:43:07;;;;;;;13.18;9.38;;;;;;;14.96;100.00;96472.78;5073784;28;20087;-46
2022/05/11 03:45:35;;;;;;;11.75;8.98;;;;;;;15.26;100.00;96473.03;5070290;28;20068;-49
2022/05/11 03:48:04;;;;;;;10.18;8.88;;;;;;;15.21;100.00;96473.53;5071289;28;20075;-49
2022/05/11 03:50:32;;;;;;;12.15;8.77;;;;;;;15.20;100.00;96471.88;5070410;28;20064;-49
2022/05/11 03:53:01;;;;;;;10.23;8.55;;;;;;;15.27;100.00;96479.97;5064695;28;20060;-49
2022/05/11 03:55:30;;;;;;;9.82;8.45;;;;;;;15.31;100.00;96470.66;5061948;28;20064;-48
2022/05/11 03:57:58;;;;;;;9.05;8.07;;;;;;;15.36;100.00;96473.63;5066286;28;20087;-48
2022/05/11 04:00:27;;;;;;;11.23;8.35;;;;;;;15.33;100.00;96471.31;5067024;28;20080;-47
2022/05/11 04:02:58;;;;;;;9.45;8.55;;;;;;;15.69;100.00;96474.31;5063849;28;20067;-54
2022/05/11 04:05:28;;;;;;;9.60;8.60;;;;;;;16.02;100.00;96471.41;5069046;28;20073;-48
2022/05/11 04:07:56;;;;;;;9.80;8.57;;;;;;;16.57;100.00;96463.09;5069750;28;20060;-47
2022/05/11 04:10:24;;;;;;;10.77;9.00;;;;;;;17.03;100.00;96467.44;5071203;28;20561;-49
2022/05/11 04:12:54;;;;;;;9.90;8.50;;;;;;;17.41;100.00;96459.31;5071088;28;20080;-50
2022/05/11 04:15:29;;;;;;;9.55;8.55;;;;;;;17.75;100.00;96464.81;5071140;28;20064;-49
2022/05/11 04:17:58;;;;;;;10.68;8.60;;;;;;;17.92;100.00;96460.09;5070705;28;20509;-48
2022/05/11 04:20:26;;;;;;;9.27;8.27;;;;;;;18.10;100.00;96464.16;5070375;28;20098;-52
2022/05/11 04:22:55;;;;;;;8.88;7.75;;;;;;;18.37;100.00;96455.34;5068407;28;20150;-51
2022/05/11 04:25:24;;;;;;;9.57;8.68;;;;;;;18.02;100.00;96460.59;5070344;28;20080;-48
2022/05/11 04:27:54;;;;;;;10.43;8.27;;;;;;;18.28;100.00;96453.84;5070922;28;20075;-46
2022/05/11 04:30:22;;;;;;;9.27;8.27;;;;;;;18.48;100.00;96456.69;5070565;28;20068;-46
2022/05/11 04:32:51;;;;;;;9.70;8.80;;;;;;;18.18;100.00;96459.53;5069574;28;20041;-48
2022/05/11 04:35:20;;;;;;;9.82;8.82;;;;;;;18.05;100.00;96459.41;5061841;28;20078;-49
2022/05/11 04:37:48;;;;;;;10.02;8.15;;;;;;;18.22;100.00;96473.31;5068677;28;20087;-46
2022/05/11 04:40:16;;;;;;;8.73;7.82;;;;;;;19.06;100.00;96467.94;5070244;28;20455;-47
2022/05/11 04:42:45;;;;;;;9.57;8.57;;;;;;;19.06;100.00;96464.47;5070737;28;20170;-46
2022/05/11 04:45:15;;;;;;;9.30;7.65;;;;;;;19.35;100.00;96466.06;5070504;28;20459;-46
2022/05/11 04:47:43;;;;;;;8.57;7.30;;;;;;;19.36;100.00;96473.03;5069701;28;20056;-49
2022/05/11 04:50:13;;;;;;;9.45;8.55;;;;;;;19.14;100.00;96478.50;5070253;28;20135;-50
2022/05/11 04:52:46;;;;;;;9.75;8.75;;;;;;;19.84;100.00;96473.03;5070089;28;20086;-49
2022/05/11 04:55:15;;;;;;;9.48;8.68;;;;;;;19.93;100.00;96477.16;5063957;28;20080;-51
2022/05/11 04:57:43;;;;;;;9.27;8.02;;;;;;;21.00;100.00;96472.66;5063914;28;20079;-48
2022/05/11 05:00:15;;;;;;;8.75;7.75;;;;;;;21.46;100.00;96469.84;5069679;28;20064;-51
2022/05/11 05:02:45;;;;;;;9.35;8.45;;;;;;;21.00;100.00;96486.06;5065888;28;20037;-47
2022/05/11 05:05:14;;;;;;;8.95;8.00;;;;;;;20.26;100.00;96474.50;5070225;28;20117;-47
2022/05/11 05:07:42;;;;;;;8.35;7.55;;;;;;;20.69;100.00;96481.38;5070237;28;20468;-46
2022/05/11 05:10:13;;;;;;;7.80;7.10;;;;;;;20.24;100.00;96483.81;5069527;28;20084;-46
2022/05/11 05:12:42;;;;;;;11.13;6.43;;;;;;;20.30;100.00;96480.28;5070030;28;20470;-50
2022/05/11 05:15:12;;;;;;;8.63;7.32;;;;;;;20.92;100.00;96483.56;5070160;28;20060;-47
2022/05/11 05:17:40;;;;;;;7.47;6.80;;;;;;;20.98;100.00;96490.78;5067453;28;20072;-50
2022/05/11 05:20:12;;;;;;;7.10;6.50;;;;;;;21.76;100.00;96480.03;5069533;28;20478;-49
2022/05/11 05:22:40;;;;;;;8.30;7.50;;;;;;;21.20;100.00;96488.69;5069027;28;20072;-50
2022/05/11 05:25:09;;;;;;;7.38;6.68;;;;;;;21.12;100.00;96487.03;5069679;28;20088;-50
2022/05/11 05:27:38;;;;;;;7.97;6.93;;;;;;;21.12;100.00;96495.09;5069888;28;20080;-47
2022/05/11 05:32:54;;;;;;;8.27;7.47;;;;;;;21.54;100.00;96490.22;5068449;28;20075;-47
2022/05/11 05:35:23;;;;;;;7.53;6.82;;;;;;;20.68;100.00;96501.97;5068823;28;20060;-47
2022/05/11 05:37:52;;;;;;;6.95;6.28;;;;;;;21.88;100.00;96497.09;5069185;28;20064;-48
2022/05/11 05:40:20;;;;;;;6.65;5.97;;;;;;;20.99;100.00;96508.53;5069102;28;20099;-47
2022/05/11 05:42:49;;;;;;;9.10;6.40;;;;;;;21.68;100.00;96493.69;5069487;28;20553;-51
2022/05/11 05:45:18;;;;;;;7.95;6.60;;;;;;;20.80;100.00;96508.34;5068167;28;20043;-51
2022/05/11 05:47:46;;;;;;;7.75;6.88;;;;;;;21.70;100.00;96496.97;5069089;28;20072;-49
2022/05/11 05:50:14;;;;;;;8.00;7.25;;;;;;;21.95;100.00;96491.69;5074324;28;20076;-48
2022/05/11 05:52:49;;;;;;;8.32;7.55;;;;;;;21.81;100.00;96494.44;5062538;28;20071;-49
2022/05/11 05:55:19;;;;;;;7.47;6.78;;;;;;;20.98;100.00;96507.69;5065383;28;20076;-44
2022/05/11 05:57:48;;;;;;;;;;;;;;;21.72;100.00;96498.44;5069992;28;20072;-49
2022/05/11 06:00:17;;;;;;;8.63;5.88;;;;;;;21.64;100.00;96497.84;5070680;28;19956;-50
2022/05/11 06:02:45;;;;;;;6.85;6.13;;;;;;;21.44;100.00;96492.53;5067962;28;20542;-48
2022/05/11 06:05:15;;;;;;;6.78;6.07;;;;;;;21.52;100.00;96497.69;5068885;28;20068;-46
2022/05/11 06:07:44;;;;;;;7.60;5.87;;;;;;;21.60;100.00;96494.75;5068935;28;20060;-48
2022/05/11 06:10:13;;;;;;;6.50;5.88;;;;;;;20.91;100.00;96498.84;5068850;28;20085;-48
2022/05/11 06:12:41;;;;;;;6.57;5.60;;;;;;;21.17;100.00;96507.88;5068417;28;20091;-50
2022/05/11 06:15:13;;;;;;;6.72;5.50;;;;;;;21.51;100.00;96496.88;5068252;28;20106;-48
2022/05/11 06:17:41;;;;;;;6.22;5.50;;;;;;;21.41;100.00;96503.72;5066578;28;20064;-50
2022/05/11 06:20:10;;;;;;;7.70;5.75;;;;;;;21.50;100.00;96495.19;5068900;28;20083;-45
2022/05/11 06:22:39;;;;;;;8.75;5.85;;;;;;;21.59;100.00;96500.34;5068090;28;20526;-47
2022/05/11 06:25:09;;;;;;;6.53;5.43;;;;;;;21.54;100.00;96493.75;5069317;28;20240;-49
2022/05/11 06:27:38;;;;;;;11.35;5.97;;;;;;;21.37;100.00;96497.97;5066998;28;20676;-46
2022/05/11 06:30:08;;;;;;;8.00;5.38;;;;;;;21.86;100.00;96499.19;5068264;28;20076;-46
2022/05/11 06:32:37;;;;;;;6.50;5.38;;;;;;;21.21;100.00;96504.56;5067743;28;20076;-49
2022/05/11 06:35:06;;;;;;;6.35;5.60;;;;;;;21.67;100.00;96498.22;5054598;28;20090;-50
2022/05/11 06:37:34;;;;;;;5.80;4.72;;;;;;;21.82;100.00;96503.34;5068096;28;20060;-48
2022/05/11 06:40:03;;;;;;;6.47;5.03;;;;;;;21.61;100.00;96496.41;5067978;28;20095;-45
2022/05/11 06:42:33;;;;;;;10.53;5.37;;;;;;;21.91;100.00;96499.34;5063469;28;20078;-46
2022/05/11 06:45:02;;;;;;;5.78;5.03;;;;;;;22.21;100.00;96496.94;5068193;28;20061;-45
2022/05/11 06:47:30;;;;;;;10.27;4.70;;;;;;;22.58;100.00;96499.75;5068461;28;20538;-50
2022/05/11 06:49:58;;;;;;;5.55;4.70;;;;;;;21.93;100.00;96497.28;5068013;28;20162;-49
2022/05/11 06:52:27;;;;;;;5.43;4.35;;;;;;;22.33;100.00;96499.72;5067155;28;20080;-49
2022/05/11 07:00:30;;;;;;;8.32;5.15;;;;;;;22.43;100.00;96496.56;5069630;28;20083;-50
2022/05/11 07:02:59;;;;;;;6.07;4.63;;;;;;;22.22;100.00;96492.38;5072131;28;20452;-47
2022/05/11 07:05:35;;;;;;;5.20;4.70;;;;;;;22.08;100.00;96499.66;5072278;28;20072;-47
2022/05/11 07:08:04;;;;;;;7.30;4.72;;;;;;;22.65;100.00;96497.03;5072205;28;20518;-45
2022/05/11 07:10:32;;;;;;;8.43;4.78;;;;;;;22.57;100.00;96491.91;5068973;28;20515;-45
2022/05/11 07:13:01;;;;;;;6.72;5.18;;;;;;;22.85;100.00;96492.28;5072087;28;20072;-52
2022/05/11 07:15:29;;;;;;;5.97;4.63;;;;;;;23.03;100.00;96494.22;5067582;28;20064;-53
2022/05/11 07:17:59;;;;;;;9.60;5.55;;;;;;;22.52;100.00;96497.94;5071968;28;20056;-48
2022/05/11 07:20:33;;;;;;;5.78;4.72;;;;;;;23.16;100.00;96501.34;5072300;28;20064;-50
2022/05/11 07:23:03;;;;;;;6.53;5.05;;;;;;;22.74;100.00;96487.63;5064302;28;20056;-46
2022/05/11 07:25:32;;;;;;;11.07;5.55;;;;;;;23.11;100.00;96483.16;5071829;28;20447;-48
2022/05/11 07:28:02;;;;;;;8.27;4.65;;;;;;;23.10;100.00;96486.09;5072674;28;20072;-55
2022/05/11 07:30:33;;;;;;;7.40;4.82;;;;;;;23.35;100.00;96478.75;5071186;28;20056;-50
2022/05/11 07:33:07;;;;;;;6.57;5.18;;;;;;;23.45;100.00;96486.31;5071121;28;20083;-50
2022/05/11 07:35:35;;;;;;;5.90;5.30;;;;;;;23.40;100.00;96478.06;5072005;28;20063;-51
2022/05/11 07:38:08;;;;;;;6.63;5.20;;;;;;;23.75;100.00;96481.00;5072057;28;20072;-51
2022/05/11 07:40:36;;;;;;;8.15;5.50;;;;;;;23.75;100.00;96481.00;5068484;28;20064;-48
2022/05/11 07:43:07;;;;;;;6.18;5.28;;;;;;;23.77;100.00;96478.88;5073545;28;20049;-47
2022/05/11 07:45:36;;;;;;;6.57;5.10;;;;;;;23.62;100.00;96475.75;5070946;28;20336;-49
2022/05/11 07:48:05;;;;;;;5.90;5.30;;;;;;;23.95;100.00;96480.72;5071141;28;20083;-53
2022/05/11 07:50:33;;;;;;;5.97;5.38;;;;;;;24.02;100.00;96473.38;5073228;28;20068;-45
2022/05/11 07:53:02;;;;;;;6.05;5.40;;;;;;;24.08;100.00;96477.81;5070672;28;20064;-51
2022/05/11 07:55:30;;;;;;;7.40;5.88;;;;;;;24.03;100.00;96476.88;5073725;28;20068;-50
2022/05/11 08:00:47;;;;;;;7.93;6.07;;;;;;;23.88;100.00;96480.81;5070805;28;20425;-46
2022/05/11 08:03:16;;;;;;;6.82;5.93;;;;;;;23.96;100.00;96470.78;5070712;28;20075;-47
2022/05/11 08:05:44;;;;;;;5.78;5.15;;;;;;;23.88;100.00;96477.28;5067328;28;20080;-55
2022/05/11 08:08:13;;;;;;;7.38;5.43;;;;;;;24.59;100.00;96481.03;5070421;28;20493;-50
2022/05/11 08:10:43;;;;;;;8.15;5.68;;;;;;;24.19;100.00;96475.41;5070507;28;20060;-49
2022/05/11 08:13:12;;;;;;;7.15;5.28;;;;;;;24.42;100.00;96480.88;5070534;28;20084;-51
2022/05/11 08:15:43;;;;;;;6.93;5.13;;;;;;;24.52;100.00;96483.81;5071181;28;20072;-52
2022/05/11 08:18:15;;;;;;;7.35;5.07;;;;;;;24.57;100.00;96477.72;5071116;28;20471;-52
2022/05/11 08:20:46;;;;;;;6.95;5.22;;;;;;;24.60;100.00;96477.25;5070423;28;20064;-51
2022/05/11 08:23:14;;;;;;;5.97;5.38;;;;;;;24.83;100.00;96471.06;5070576;28;20086;-50
2022/05/11 08:25:46;;;;;;;6.10;5.50;;;;;;;24.79;100.00;96475.28;5070738;28;20068;-52
2022/05/11 08:28:16;;;;;;;6.03;5.00;;;;;;;25.34;100.00;96470.34;5065840;28;20087;-56
2022/05/11 08:33:35;;;;;;;6.03;5.43;;;;;;;24.88;100.00;96476.59;5066607;28;20064;-51
2022/05/11 08:36:25;;;;;;;6.18;4.90;;;;;;;25.21;89.43;96478.69;5066740;28;20115;-53
2022/05/11 08:38:55;;;;;;;;;;;;;;;24.96;100.00;96473.53;5071221;28;20060;-53
2022/05/11 08:41:31;;;;;;;7.60;5.20;;;;;;;24.84;100.00;96472.69;5070493;28;19966;-54
2022/05/11 08:44:01;;;;;;;7.22;4.78;;;;;;;24.79;100.00;96465.31;5069814;28;20645;-49
2022/05/11 08:46:41;;;;;;;5.68;5.07;;;;;;;25.46;92.54;96467.59;5070530;28;20071;-47
2022/05/11 08:49:15;;;;;;;6.07;5.37;;;;;;;25.41;97.45;96466.69;5066474;28;20095;-53
2022/05/11 08:51:49;;;;;;;5.05;4.65;;;;;;;25.02;93.76;96464.50;5069797;28;20498;-48
2022/05/11 08:54:22;;;;;;;5.95;5.15;;;;;;;25.20;96.00;96458.19;5070142;28;20083;-46
2022/05/11 08:56:52;;;;;;;5.07;4.57;;;;;;;25.27;93.57;96464.25;5070464;28;20120;-48
2022/05/11 08:59:23;;;;;;;5.00;4.57;;;;;;;25.31;91.34;96467.31;5070132;28;20085;-49
2022/05/11 09:01:56;;;;;;;6.57;4.80;;;;;;;25.24;90.93;96462.03;5066754;28;20072;-47
2022/05/11 09:04:34;;;;;;;4.88;4.38;;;;;;;25.33;95.03;96467.91;5069583;28;20084;-48
2022/05/11 09:07:03;;;;;;;7.22;5.30;;;;;;;25.89;89.49;96466.34;5070492;28;20060;-51
2022/05/11 09:09:31;;;;;;;7.07;4.80;;;;;;;26.37;79.57;96458.81;5069960;28;20522;-52
2022/05/11 09:12:00;;;;;;;6.30;5.70;;;;;;;25.68;90.84;96454.28;5069877;28;20068;-52
2022/05/11 09:14:31;;;;;;;6.10;5.57;;;;;;;25.97;82.70;96452.44;5070058;28;20612;-50
2022/05/11 09:16:59;;;;;;;6.35;4.82;;;;;;;25.79;88.11;96449.91;5068968;28;20068;-51
2022/05/11 09:19:31;;;;;;;6.50;4.90;;;;;;;26.24;87.98;96459.94;5069731;28;20068;-52
2022/05/11 09:22:07;;;;;;;5.68;4.95;;;;;;;25.90;78.61;96459.03;5063596;28;20530;-50
2022/05/11 09:24:37;;;;;;;6.18;4.78;;;;;;;26.15;86.48;96447.88;5066486;28;21233;-51
2022/05/11 09:27:22;;;;;;;6.65;4.72;;;;;;;26.58;77.94;96450.00;5069396;28;20072;-50
2022/05/11 09:29:58;;;;;;;5.60;4.88;;;;;;;26.81;75.75;96454.41;5066066;28;20043;-51
2022/05/11 09:32:31;;;;;;;4.88;4.38;;;;;;;26.62;74.50;96453.03;5068989;28;20072;-51
2022/05/11 09:35:18;;;;;;;6.75;4.75;;;;;;;26.35;72.14;96445.50;5069322;28;20098;-49
2022/05/11 09:38:02;;;;;;;5.85;5.07;;;;;;;26.57;74.60;96451.06;5065701;28;20060;-52
2022/05/11 09:40:31;;;;;;;5.78;4.55;;;;;;;26.27;73.37;96444.03;5068289;28;20052;-49
2022/05/11 09:43:02;;;;;;;5.50;4.50;;;;;;;26.57;70.30;96451.06;5069305;28;20688;-49
2022/05/11 09:45:39;;;;;;;5.70;4.80;;;;;;;26.72;66.65;96439.66;5069011;28;20064;-50
2022/05/11 09:48:14;;;;;;;7.82;4.65;;;;;;;26.26;75.42;96441.59;5069002;28;20075;-46
2022/05/11 09:50:44;;;;;;;4.93;4.43;;;;;;;26.27;76.16;96440.53;5069989;28;20086;-53
2022/05/11 09:53:17;;;;;;;;;;;;;;;25.85;78.48;96430.06;5069476;28;20467;-50
2022/05/11 09:55:49;;;;;;;6.38;4.22;;;;;;;26.27;71.72;96446.75;5068998;28;19951;-52
2022/05/11 09:58:28;;;;;;;4.55;4.13;;;;;;;26.30;65.78;96431.13;5064218;28;20088;-48
2022/05/11 10:01:13;;;;;;;7.90;4.07;;;;;;;26.26;68.97;96423.50;5067623;28;20101;-52
2022/05/11 10:03:46;;;;;;;5.03;4.43;;;;;;;26.47;64.76;96426.56;5065304;28;23100;-54
2022/05/11 10:06:27;;;;;;;4.85;4.28;;;;;;;26.28;64.25;96432.16;5063393;28;20514;-52
2022/05/11 10:08:56;;;;;;;5.53;4.40;;;;;;;26.84;68.19;96428.72;5068689;28;20065;-51
2022/05/11 10:11:26;;;;;;;6.07;4.43;;;;;;;27.21;58.60;96431.69;5068292;28;20048;-51
2022/05/11 10:14:00;;;;;;;4.60;4.15;;;;;;;26.86;60.99;96422.00;5064185;28;20060;-50
2022/05/11 10:22:19;;;;;;;5.05;4.55;;;;;;;26.77;64.16;96423.47;5064304;28;20044;-46
2022/05/11 10:25:01;;;;;;;5.40;4.60;;;;;;;26.87;61.06;96417.41;5068749;28;20080;-49
2022/05/11 10:27:35;;;;;;;7.82;4.40;;;;;;;26.98;66.59;96417.31;5068181;28;20428;-50
2022/05/11 10:30:09;;;;;;;4.50;4.10;;;;;;;27.08;61.19;96408.50;5063231;28;20068;-51
2022/05/11 10:32:48;;;;;;;4.80;4.38;;;;;;;27.53;59.14;96409.31;5062475;28;20044;-52
2022/05/11 10:35:19;;;;;;;6.38;4.15;;;;;;;27.21;58.58;96405.44;5067791;28;20075;-49
2022/05/11 10:38:13;;;;;;;6.57;4.32;;;;;;;27.05;52.69;96405.47;5068314;28;20126;-50
2022/05/11 10:40:48;;;;;;;4.88;3.80;;;;;;;27.36;50.68;96412.13;5014289;28;20067;-49
2022/05/11 10:43:27;;;;;;;5.45;4.40;;;;;;;27.53;55.18;96399.34;5062187;28;20102;-46
2022/05/11 10:46:18;;;;;;;4.30;3.35;;;;;;;27.30;57.00;96396.91;5066414;28;20123;-46
2022/05/11 10:48:59;;;;;;;5.78;4.30;;;;;;;27.24;51.53;96397.91;5069169;28;20072;-48
2022/05/11 10:51:36;;;;;;;5.20;4.05;;;;;;;27.24;54.38;96392.47;5061729;28;20075;-50
2022/05/11 10:54:13;;;;;;;8.15;4.10;;;;;;;27.44;55.32;96398.97;5060969;28;20523;-47
2022/05/11 10:56:48;;;;;;;4.68;4.28;;;;;;;27.46;51.90;96385.19;5068035;28;20060;-52
2022/05/11 10:59:58;;;;;;;5.68;4.18;;;;;;;27.40;53.85;96381.56;5067961;28;20045;-47
2022/05/11 11:02:56;;;;;;;5.67;4.00;;;;;;;27.23;52.68;96380.84;5036493;28;20067;-54
2022/05/11 11:05:29;;;;;;;5.47;4.57;;;;;;;27.84;54.79;96372.56;5065871;28;20106;-51
2022/05/11 11:08:06;;;;;;;7.03;4.03;;;;;;;27.49;52.47;96373.81;5062426;28;20582;-47
2022/05/11 11:10:40;;;;;;;7.97;4.63;;;;;;;27.86;50.40;96370.44;5067876;28;20064;-54
2022/05/11 11:13:22;;;;;;;5.10;3.75;;;;;;;27.75;50.07;96374.91;5068397;28;20095;-51
2022/05/11 11:15:51;;;;;;;4.75;4.00;;;;;;;27.66;48.36;96360.97;5068250;28;20646;-51
2022/05/11 11:18:27;;;;;;;3.67;3.33;;;;;;;27.92;46.74;96372.13;5068014;28;20068;-46
2022/05/11 11:21:01;;;;;;;6.43;3.55;;;;;;;27.92;44.15;96361.28;5067728;28;20068;-51
2022/05/11 11:23:35;;;;;;;3.90;3.50;;;;;;;28.01;42.34;96361.63;5054927;28;20079;-47
2022/05/11 11:26:08;;;;;;;4.03;3.63;;;;;;;28.03;41.86;96359.47;5063402;28;20071;-45
2022/05/11 11:29:12;;;;;;;4.90;3.58;;;;;;;28.32;44.72;96349.97;5067816;28;20064;-51
2022/05/11 11:32:09;;;;;;;3.63;3.00;;;;;;;28.01;42.44;96362.44;5062408;28;20056;-49
2022/05/11 11:34:39;;;;;;;4.22;3.63;;;;;;;28.16;42.26;96351.72;5067044;28;20060;-52
2022/05/11 11:37:39;;;;;;;4.70;3.10;;;;;;;27.88;40.44;96344.72;5064544;28;20076;-52
2022/05/11 11:40:26;;;;;;;4.72;3.40;;;;;;;28.08;42.05;96343.22;5062756;28;20080;-49
2022/05/11 11:42:55;;;;;;;5.25;3.20;;;;;;;28.03;39.06;96337.78;5068179;28;20084;-50
2022/05/11 11:46:05;;;;;;;3.25;2.75;;;;;;;28.06;39.14;96334.56;5067817;28;20079;-53
2022/05/11 11:48:38;;;;;;;3.70;3.00;;;;;;;28.19;39.34;96339.53;5071638;28;20527;-45
2022/05/11 11:51:13;;;;;;;5.28;3.08;;;;;;;28.03;38.03;96338.59;5070462;28;20475;-51
2022/05/11 11:53:55;;;;;;;4.05;3.33;;;;;;;28.08;38.59;96326.97;5073899;28;20068;-49
2022/05/11 11:56:48;;;;;;;6.03;2.97;;;;;;;28.68;35.86;96336.63;5070564;28;20071;-48
2022/05/11 11:59:36;;;;;;;4.65;2.83;;;;;;;28.69;36.19;96330.13;5071453;28;20071;-49
2022/05/11 12:02:13;;;;;;;4.40;2.90;;;;;;;29.17;35.38;96322.78;5077210;28;20524;-47
2022/05/11 12:04:45;;;;;;;5.40;3.03;;;;;;;28.47;36.12;96322.13;5067360;28;20061;-50
2022/05/11 12:15:40;;;;;;;4.32;2.92;;;;;;;29.00;37.63;96306.69;5070445;28;20373;-51
2022/05/11 12:18:21;;;;;;;;;;;;;;;28.54;35.31;96311.88;5071283;28;20065;-52
2022/05/11 12:20:49;;;;;;;2.97;2.40;;;;;;;28.38;34.45;96305.53;5070359;28;19948;-53